createdAt,value
2022-07-29T00:01:59.351Z,5.85
2022-07-29T00:07:01.030Z,5.00
2022-07-29T00:12:03.235Z,4.95
2022-07-29T00:17:04.992Z,4.55
2022-07-29T00:22:06.773Z,4.63
2022-07-29T00:27:08.574Z,4.80
2022-07-29T00:32:10.426Z,5.70
2022-07-29T00:37:12.145Z,4.88
2022-07-29T00:42:13.926Z,5.82
2022-07-29T00:47:15.621Z,7.18
2022-07-29T00:52:17.403Z,6.68
2022-07-29T00:57:19.186Z,5.05
2022-07-29T01:02:20.956Z,5.43
2022-07-29T01:07:22.774Z,5.28
2022-07-29T01:12:26.694Z,5.47
2022-07-29T01:17:39.872Z,5.38
2022-07-29T01:23:06.596Z,5.18
2022-07-29T01:28:37.476Z,5.07
2022-07-29T01:33:51.960Z,4.75
2022-07-29T01:39:11.947Z,5.15
2022-07-29T01:54:58.254Z,5.18
2022-07-29T02:00:01.763Z,6.18
2022-07-29T02:05:06.815Z,5.30
2022-07-29T02:10:10.308Z,5.45
2022-07-29T02:15:13.144Z,5.43
2022-07-29T02:20:17.813Z,5.80
2022-07-29T02:25:21.916Z,8.90
2022-07-29T02:30:24.870Z,6.90
2022-07-29T02:35:27.200Z,6.60
2022-07-29T02:40:28.960Z,6.18
2022-07-29T02:45:31.183Z,6.47
2022-07-29T02:50:41.249Z,7.80
2022-07-29T02:55:58.055Z,6.18
2022-07-29T03:01:04.915Z,5.80
2022-07-29T03:06:09.524Z,6.05
2022-07-29T03:16:52.693Z,6.40
2022-07-29T03:21:58.001Z,6.95
2022-07-29T03:26:59.855Z,6.50
2022-07-29T03:32:07.277Z,6.30
2022-07-29T03:37:10.286Z,7.75
2022-07-29T03:42:14.864Z,6.85
2022-07-29T03:47:20.049Z,7.10
2022-07-29T03:52:24.008Z,7.20
2022-07-29T03:57:29.392Z,7.20
2022-07-29T04:02:32.696Z,7.65
2022-07-29T04:07:34.495Z,8.30
2022-07-29T04:12:36.312Z,7.43
2022-07-29T04:17:38.281Z,7.05
2022-07-29T04:22:43.165Z,6.53
2022-07-29T04:28:01.149Z,7.43
2022-07-29T04:33:04.244Z,6.55
2022-07-29T04:38:07.610Z,6.03
2022-07-29T04:48:28.780Z,6.60
2022-07-29T04:53:30.904Z,5.97
2022-07-29T04:58:34.955Z,6.78
2022-07-29T05:03:36.819Z,8.02
2022-07-29T05:08:38.560Z,7.60
2022-07-29T05:13:46.675Z,7.35
2022-07-29T05:18:48.784Z,8.05
2022-07-29T05:23:50.512Z,7.32
2022-07-29T05:28:52.334Z,7.20
2022-07-29T05:33:54.125Z,7.00
2022-07-29T05:38:55.851Z,7.97
2022-07-29T05:43:57.676Z,9.20
2022-07-29T05:48:59.389Z,10.27
2022-07-29T05:54:01.552Z,10.20
2022-07-29T05:59:04.091Z,11.07
2022-07-29T06:04:06.546Z,9.80
2022-07-29T06:09:09.142Z,11.07
2022-07-29T06:14:15.266Z,11.45
2022-07-29T06:19:17.224Z,10.32
2022-07-29T06:24:19.424Z,11.38
2022-07-29T06:29:21.506Z,10.38
2022-07-29T06:34:23.337Z,11.77
2022-07-29T06:39:25.044Z,12.23
2022-07-29T06:44:26.804Z,10.43
2022-07-29T06:49:28.747Z,10.73
2022-07-29T06:54:30.551Z,9.60
2022-07-29T06:59:35.853Z,9.85
2022-07-29T07:04:37.669Z,9.68
2022-07-29T07:09:40.358Z,9.13
2022-07-29T07:14:42.809Z,8.35
2022-07-29T07:19:44.568Z,6.82
2022-07-29T07:24:46.354Z,5.47
2022-07-29T07:29:48.106Z,5.40
2022-07-29T07:34:49.964Z,3.63
2022-07-29T07:39:55.271Z,3.90
2022-07-29T07:45:12.694Z,4.32
2022-07-29T07:50:18.733Z,3.22
2022-07-29T07:55:21.117Z,3.50
2022-07-29T08:00:23.861Z,2.53
2022-07-29T08:05:25.707Z,2.72
2022-07-29T08:10:45.961Z,3.20
2022-07-29T08:15:48.307Z,2.88
2022-07-29T08:20:50.071Z,3.17
2022-07-29T08:25:51.890Z,2.90
2022-07-29T08:30:53.711Z,2.95
2022-07-29T08:35:55.472Z,2.90
2022-07-29T08:40:57.362Z,2.88
2022-07-29T08:45:59.288Z,2.90
2022-07-29T08:51:02.517Z,3.13
2022-07-29T08:56:06.903Z,2.50
2022-07-29T09:01:12.271Z,2.50
2022-07-29T09:06:17.940Z,3.13
2022-07-29T09:11:19.832Z,2.97
2022-07-29T09:16:43.816Z,2.72
2022-07-29T09:21:58.518Z,2.80
2022-07-29T09:27:00.227Z,3.08
2022-07-29T09:32:06.885Z,2.78
2022-07-29T09:37:09.236Z,2.80
2022-07-29T09:42:11.594Z,2.95
2022-07-29T09:47:13.992Z,2.88
2022-07-29T09:52:15.774Z,2.90
2022-07-29T09:57:30.875Z,2.95
2022-07-29T10:02:34.631Z,3.78
2022-07-29T10:07:53.635Z,3.60
2022-07-29T10:13:08.913Z,3.40
2022-07-29T10:18:15.473Z,3.10
2022-07-29T10:23:17.307Z,3.22
2022-07-29T10:28:19.011Z,3.58
2022-07-29T10:33:58.348Z,3.78
2022-07-29T10:39:25.587Z,3.75
2022-07-29T10:44:44.286Z,3.42
2022-07-29T10:49:58.237Z,3.40
2022-07-29T10:55:05.683Z,3.70
2022-07-29T11:00:11.735Z,3.40
2022-07-29T11:05:14.548Z,3.85
2022-07-29T11:10:16.812Z,3.60
2022-07-29T11:15:25.002Z,3.85
2022-07-29T11:20:46.621Z,3.90
2022-07-29T11:26:14.502Z,4.00
2022-07-29T11:31:47.425Z,5.10
2022-07-29T11:37:11.991Z,3.58
2022-07-29T11:42:28.479Z,3.92
2022-07-29T11:53:00.493Z,4.38
2022-07-29T11:58:04.593Z,4.40
2022-07-29T12:03:10.893Z,4.57
2022-07-29T12:07:02.023Z,3.55
2022-07-29T12:08:22.636Z,5.40
2022-07-29T12:13:37.678Z,4.80
2022-07-29T12:18:39.840Z,5.00
2022-07-29T12:24:03.401Z,4.65
2022-07-29T12:29:11.299Z,4.68
2022-07-29T12:34:17.749Z,4.35
2022-07-29T12:39:20.172Z,4.00
2022-07-29T12:44:21.913Z,4.72
2022-07-29T12:49:24.134Z,4.40
2022-07-29T12:54:25.914Z,4.05
2022-07-29T12:59:27.627Z,4.00
2022-07-29T13:04:34.429Z,3.53
2022-07-29T13:09:42.663Z,3.63
2022-07-29T13:14:51.957Z,3.25
2022-07-29T13:20:06.041Z,4.05
2022-07-29T13:25:11.560Z,4.97
2022-07-29T13:30:13.726Z,3.20
2022-07-29T13:35:15.771Z,3.15
2022-07-29T13:40:17.558Z,2.90
2022-07-29T13:45:19.967Z,2.67
2022-07-29T13:50:21.754Z,2.20
2022-07-29T13:55:23.565Z,2.05
2022-07-29T14:00:25.584Z,2.30
2022-07-29T14:05:27.304Z,2.10
2022-07-29T14:10:29.013Z,2.40
2022-07-29T14:15:30.833Z,2.42
2022-07-29T14:20:32.620Z,2.30
2022-07-29T14:25:34.453Z,2.40
2022-07-29T14:30:36.168Z,2.40
2022-07-29T14:35:37.903Z,2.13
2022-07-29T14:40:39.659Z,2.38
2022-07-29T14:45:41.856Z,2.30
2022-07-29T14:50:43.566Z,3.10
2022-07-29T14:55:45.842Z,2.70
2022-07-29T15:00:47.633Z,3.10
2022-07-29T15:05:49.354Z,3.08
2022-07-29T15:10:51.045Z,2.88
2022-07-29T15:15:57.005Z,3.38
2022-07-29T15:21:02.953Z,3.10
2022-07-29T15:26:05.386Z,3.20
2022-07-29T15:31:07.151Z,3.20
2022-07-29T15:36:08.974Z,3.50
2022-07-29T15:41:14.159Z,3.33
2022-07-29T15:46:37.216Z,3.50
2022-07-29T15:51:38.959Z,3.72
2022-07-29T15:56:40.643Z,3.90
2022-07-29T16:01:42.599Z,3.17
2022-07-29T16:06:48.029Z,3.15
2022-07-29T16:11:50.961Z,3.42
2022-07-29T16:16:52.783Z,3.17
2022-07-29T16:21:59.552Z,3.28
2022-07-29T16:27:02.138Z,3.63
2022-07-29T16:32:05.201Z,3.22
2022-07-29T16:37:07.036Z,3.20
2022-07-29T16:42:09.881Z,3.53
2022-07-29T16:47:11.680Z,3.42
2022-07-29T16:52:14.127Z,3.63
2022-07-29T16:57:16.187Z,3.35
2022-07-29T17:02:18.153Z,3.63
2022-07-29T17:07:19.931Z,3.65
2022-07-29T17:12:21.638Z,3.53
2022-07-29T17:17:39.539Z,4.32
2022-07-29T17:27:46.930Z,3.53
2022-07-29T17:32:48.787Z,3.60
2022-07-29T17:37:50.593Z,3.50
2022-07-29T17:42:52.386Z,3.42
2022-07-29T17:47:54.089Z,3.20
2022-07-29T17:52:55.787Z,3.25
2022-07-29T17:58:00.074Z,3.40
2022-07-29T18:03:01.985Z,3.45
2022-07-29T18:08:03.939Z,3.05
2022-07-29T18:13:05.791Z,3.20
2022-07-29T18:18:07.571Z,3.70
2022-07-29T18:23:10.379Z,3.60
2022-07-29T18:28:12.152Z,3.15
2022-07-29T18:33:21.618Z,2.80
2022-07-29T18:38:23.925Z,3.50
2022-07-29T18:43:25.628Z,3.58
2022-07-29T18:48:27.466Z,3.80
2022-07-29T18:53:29.202Z,3.95
2022-07-29T18:58:32.940Z,3.40
2022-07-29T19:03:34.963Z,3.72
2022-07-29T19:08:36.693Z,4.00
2022-07-29T19:13:38.885Z,3.42
2022-07-29T19:18:41.305Z,3.85
2022-07-29T19:24:01.776Z,3.65
2022-07-29T19:29:05.013Z,4.50
2022-07-29T19:34:07.357Z,4.13
2022-07-29T19:39:09.093Z,3.88
2022-07-29T19:44:11.486Z,4.85
2022-07-29T19:49:13.691Z,3.90
2022-07-29T19:54:18.096Z,5.90
2022-07-29T19:59:19.851Z,4.97
2022-07-29T20:04:26.303Z,5.85
2022-07-29T20:09:28.258Z,6.05
2022-07-29T20:14:30.192Z,3.78
2022-07-29T20:19:32.933Z,3.33
2022-07-29T20:24:34.971Z,3.40
2022-07-29T20:29:37.457Z,3.30
2022-07-29T20:34:41.206Z,3.50
2022-07-29T20:39:42.902Z,3.42
2022-07-29T20:44:44.692Z,3.25
2022-07-29T20:49:46.475Z,3.90
2022-07-29T20:54:48.811Z,3.28
2022-07-29T20:59:50.930Z,3.80
2022-07-29T21:04:53.461Z,3.30
2022-07-29T21:09:55.171Z,3.22
2022-07-29T21:14:57.788Z,3.15
2022-07-29T21:19:59.489Z,3.20
2022-07-29T21:25:01.629Z,3.33
2022-07-29T21:30:04.551Z,7.63
2022-07-29T21:35:18.226Z,4.55
2022-07-29T21:45:30.048Z,3.65
2022-07-29T21:50:32.121Z,3.70
2022-07-29T21:55:33.953Z,4.07
2022-07-29T22:00:35.649Z,3.72
2022-07-29T22:05:37.465Z,3.40
2022-07-29T22:10:39.323Z,3.50
2022-07-29T22:15:45.373Z,3.60
2022-07-29T22:20:50.242Z,6.55
2022-07-29T22:25:52.087Z,4.82
2022-07-29T22:30:53.815Z,3.72
2022-07-29T22:35:55.520Z,4.82
2022-07-29T22:41:00.293Z,4.97
2022-07-29T22:46:03.403Z,5.10
2022-07-29T22:51:05.242Z,4.60
2022-07-29T22:56:07.203Z,4.65
2022-07-29T23:01:09.018Z,4.65
2022-07-29T23:06:10.870Z,3.67
2022-07-29T23:11:12.662Z,3.83
2022-07-29T23:16:14.448Z,6.90
2022-07-29T23:21:28.655Z,7.38
2022-07-29T23:26:31.719Z,4.75
2022-07-29T23:31:34.721Z,5.25
2022-07-29T23:36:43.668Z,4.30
2022-07-29T23:41:45.353Z,5.38
2022-07-29T23:46:47.091Z,4.95
2022-07-29T23:51:48.814Z,6.13
2022-07-29T23:56:50.658Z,5.30
